Accueil
METAR-TAF:

METAR-TAF

Aéroports :

William H. Morse State Airport

Bennington, Vermont, États-Unis

latitude: 42-53-24N, longitude: 073-14-47W, altitude: 252 m

Observation

Le bulletin a été fait il y a 24 minutes, à 19:54 UTC
Vent 11 kt de ouest/nord-ouest avec des rafales jusqu'à 25 kt
Température 6°C
Humidité 61%
Pression 992 hPa
Visibilité: 16.1 km
Quelques nuages à une hauteur de 3800 ft
Nuages fragmentés à une hauteur de 4700 ft
Ciel couvert à une hauteur de 7500 ft
pluie faible

METAR: KDDH 101954Z AUTO 30011G25KT 10SM -RA FEW038 BKN047 OVC075 06/M01 A2928 RMK AO2 RAB1858E32B51 SLP918 P0003 T00561006

Heure: 16:18 (20:18 UTC)


TAF: absent

Observations et prévisions météorologiques de plus de 4000 aéroports (messages METAR et TAF).

Les stations disponibles sont représentées par des disques jaunes et rouges sur la carte.

Passer la souris dessus pour voir le nom de la station.

Cliquer dessus pour voir les observations et prévisions météorologiques.

Pour changer de carte: cliquez sur les boutons verts avec une croix noire pour zoomer, sur le bouton vert avec un tiret pour effectuer un zoom arrière, ou sur les flèches vertes pour les cartes adjacentes.


METAR-TAF: